createdAt,value
2022-11-06T00:01:57.142Z,99553.31
2022-11-06T00:04:25.166Z,99552.06
2022-11-06T00:06:52.127Z,99556.69
2022-11-06T00:09:21.588Z,99555.47
2022-11-06T00:11:50.495Z,99554.44
2022-11-06T00:14:19.091Z,99551.22
2022-11-06T00:16:49.206Z,99557.75
2022-11-06T00:19:17.510Z,99559.53
2022-11-06T00:21:46.090Z,99560.34
2022-11-06T00:24:15.567Z,99556.38
2022-11-06T00:26:43.911Z,99549.69
2022-11-06T00:29:14.654Z,99553.91
2022-11-06T00:31:43.164Z,99549.19
2022-11-06T00:34:12.689Z,99550.34
2022-11-06T00:36:40.576Z,99551.66
2022-11-06T00:39:08.395Z,99543.19
2022-11-06T00:41:36.377Z,99543.25
2022-11-06T00:44:05.091Z,99540.22
2022-11-06T00:46:33.133Z,99547.94
2022-11-06T00:49:00.988Z,99546.28
2022-11-06T00:51:32.742Z,99555.34
2022-11-06T00:54:03.922Z,99554.19
2022-11-06T00:56:32.550Z,99555.03
2022-11-06T00:59:01.434Z,99554.69
2022-11-06T01:01:31.730Z,99552.59
2022-11-06T01:04:01.086Z,99555.41
2022-11-06T01:06:32.010Z,99557.44
2022-11-06T01:09:00.712Z,99553.97
2022-11-06T01:11:46.441Z,99557.22
2022-11-06T01:14:19.630Z,99560.13
2022-11-06T01:16:47.586Z,99559.59
2022-11-06T01:19:17.631Z,99557.59
2022-11-06T01:21:48.213Z,99554.00
2022-11-06T01:24:18.185Z,99558.81
2022-11-06T01:27:05.326Z,99564.38
2022-11-06T01:29:34.545Z,99560.50
2022-11-06T01:32:02.452Z,99562.50
2022-11-06T01:34:30.630Z,99561.19
2022-11-06T01:37:00.042Z,99557.88
2022-11-06T01:39:27.852Z,99554.59
2022-11-06T01:41:56.268Z,99543.53
2022-11-06T01:45:17.181Z,99548.00
2022-11-06T01:47:45.611Z,99539.88
2022-11-06T01:50:15.459Z,99539.03
2022-11-06T01:52:47.641Z,99532.41
2022-11-06T01:55:19.131Z,99538.34
2022-11-06T01:57:48.370Z,99533.72
2022-11-06T02:00:16.583Z,99528.22
2022-11-06T02:02:45.188Z,99519.56
2022-11-06T02:05:13.350Z,99522.63
2022-11-06T02:07:43.676Z,99511.47
2022-11-06T02:10:12.933Z,99520.00
2022-11-06T02:12:49.688Z,99510.81
2022-11-06T02:15:28.308Z,99505.75
2022-11-06T02:18:13.655Z,99504.84
2022-11-06T02:20:53.049Z,99503.81
2022-11-06T02:23:35.382Z,99495.69
2022-11-06T02:26:19.030Z,99500.03
2022-11-06T02:28:54.086Z,99496.34
2022-11-06T02:31:27.360Z,99501.97
2022-11-06T02:34:00.537Z,99484.63
2022-11-06T02:36:33.034Z,99483.78
2022-11-06T02:39:06.694Z,99490.78
2022-11-06T02:41:38.350Z,99483.25
2022-11-06T02:44:12.872Z,99482.28
2022-11-06T02:46:44.892Z,99477.44
2022-11-06T02:49:18.419Z,99482.03
2022-11-06T02:51:50.790Z,99482.84
2022-11-06T02:54:21.165Z,99463.41
2022-11-06T02:56:50.333Z,99455.53
2022-11-06T02:59:23.276Z,99458.25
2022-11-06T03:01:56.575Z,99464.44
2022-11-06T03:04:27.916Z,99468.81
2022-11-06T03:07:01.977Z,99465.63
2022-11-06T03:09:32.999Z,99462.00
2022-11-06T03:12:05.163Z,99457.09
2022-11-06T03:14:41.657Z,99455.84
2022-11-06T03:17:17.561Z,99458.97
2022-11-06T03:19:49.910Z,99458.72
2022-11-06T03:22:27.705Z,99453.72
2022-11-06T03:25:01.614Z,99451.88
2022-11-06T03:27:36.129Z,99462.13
2022-11-06T03:30:10.402Z,99461.38
2022-11-06T03:32:47.553Z,99450.59
2022-11-06T03:35:22.965Z,99439.25
2022-11-06T03:37:58.143Z,99445.78
2022-11-06T03:40:30.855Z,99454.69
2022-11-06T03:43:02.126Z,99460.47
2022-11-06T03:45:33.672Z,99459.22
2022-11-06T03:48:05.878Z,99458.13
2022-11-06T03:50:37.813Z,99451.38
2022-11-06T03:53:10.845Z,99451.88
2022-11-06T03:55:44.253Z,99440.44
2022-11-06T03:58:15.392Z,99450.66
2022-11-06T04:00:45.828Z,99455.38
2022-11-06T04:03:19.905Z,99444.72
2022-11-06T04:05:53.022Z,99449.09
2022-11-06T04:08:40.728Z,99449.59
2022-11-06T04:11:29.263Z,99445.94
2022-11-06T04:14:01.871Z,99459.47
2022-11-06T04:16:35.937Z,99446.69
2022-11-06T04:19:04.654Z,99451.44
2022-11-06T04:21:46.909Z,99450.06
2022-11-06T04:24:46.997Z,99461.56
2022-11-06T04:27:24.720Z,99455.25
2022-11-06T04:30:07.402Z,99459.56
2022-11-06T04:32:57.163Z,99461.81
2022-11-06T04:35:35.277Z,99458.72
2022-11-06T04:38:08.045Z,99457.91
2022-11-06T04:40:45.022Z,99445.31
2022-11-06T04:43:20.674Z,99440.44
2022-11-06T04:45:53.031Z,99423.53
2022-11-06T04:48:23.391Z,99427.09
2022-11-06T04:50:54.129Z,99428.88
2022-11-06T04:53:22.853Z,99427.72
2022-11-06T04:55:54.997Z,99422.81
2022-11-06T04:58:23.102Z,99422.00
2022-11-06T05:00:52.435Z,99417.81
2022-11-06T05:03:21.756Z,99413.97
2022-11-06T05:05:49.589Z,99414.53
2022-11-06T05:08:19.330Z,99404.66
2022-11-06T05:10:47.741Z,99413.75
2022-11-06T05:13:16.099Z,99405.66
2022-11-06T05:15:43.954Z,99409.84
2022-11-06T05:18:12.210Z,99404.22
2022-11-06T05:20:41.726Z,99391.81
2022-11-06T05:23:08.533Z,99384.00
2022-11-06T05:25:37.806Z,99384.50
2022-11-06T05:28:07.121Z,99384.47
2022-11-06T05:30:35.983Z,99381.72
2022-11-06T05:33:03.927Z,99379.66
2022-11-06T05:35:31.769Z,99376.28
2022-11-06T05:38:02.188Z,99371.22
2022-11-06T05:40:30.351Z,99377.63
2022-11-06T05:42:58.157Z,99390.31
2022-11-06T05:45:25.952Z,99393.75
2022-11-06T05:47:53.791Z,99401.25
2022-11-06T05:50:21.608Z,99411.81
2022-11-06T05:52:49.444Z,99400.59
2022-11-06T05:55:18.683Z,99396.63
2022-11-06T05:57:46.639Z,99394.34
2022-11-06T06:00:15.688Z,99407.16
2022-11-06T06:02:44.083Z,99411.88
2022-11-06T06:05:12.219Z,99421.28
2022-11-06T06:07:40.044Z,99426.28
2022-11-06T06:10:09.794Z,99422.19
2022-11-06T06:12:39.591Z,99425.25
2022-11-06T06:15:08.633Z,99435.66
2022-11-06T06:17:36.645Z,99449.31
2022-11-06T06:20:05.871Z,99446.38
2022-11-06T06:22:33.685Z,99440.56
2022-11-06T06:25:01.613Z,99450.06
2022-11-06T06:27:31.302Z,99443.63
2022-11-06T06:30:00.857Z,99433.91
2022-11-06T06:32:28.691Z,99432.44
2022-11-06T06:34:56.474Z,99429.59
2022-11-06T06:37:24.332Z,99423.91
2022-11-06T06:39:52.121Z,99411.97
2022-11-06T06:42:19.846Z,99406.16
2022-11-06T06:44:47.795Z,99409.69
2022-11-06T06:47:18.156Z,99415.25
2022-11-06T06:49:46.022Z,99412.69
2022-11-06T06:52:13.990Z,99409.19
2022-11-06T06:54:41.939Z,99417.09
2022-11-06T06:57:10.084Z,99421.34
2022-11-06T06:59:37.923Z,99421.78
2022-11-06T07:02:05.959Z,99424.44
2022-11-06T07:04:35.099Z,99419.53
2022-11-06T07:07:03.040Z,99418.09
2022-11-06T07:09:32.160Z,99409.53
2022-11-06T07:12:00.265Z,99396.28
2022-11-06T07:14:28.044Z,99387.03
2022-11-06T07:16:55.847Z,99383.06
2022-11-06T07:19:23.647Z,99389.38
2022-11-06T07:21:53.686Z,99392.06
2022-11-06T07:24:21.482Z,99378.09
2022-11-06T07:26:49.913Z,99374.78
2022-11-06T07:29:17.789Z,99377.34
2022-11-06T07:31:48.145Z,99380.09
2022-11-06T07:34:16.169Z,99380.09
2022-11-06T07:36:44.018Z,99374.13
2022-11-06T07:39:13.137Z,99369.41
2022-11-06T07:41:40.988Z,99367.84
2022-11-06T07:44:08.802Z,99364.84
2022-11-06T07:46:36.691Z,99352.69
2022-11-06T07:49:04.827Z,99348.13
2022-11-06T07:51:33.706Z,99350.25
2022-11-06T07:54:01.526Z,99358.72
2022-11-06T07:56:31.063Z,99344.56
2022-11-06T07:58:59.010Z,99340.28
2022-11-06T08:01:27.092Z,99331.22
2022-11-06T08:03:55.033Z,99321.81
2022-11-06T08:06:23.182Z,99328.53
2022-11-06T08:08:54.835Z,99311.94
2022-11-06T08:11:25.612Z,99314.34
2022-11-06T08:13:54.725Z,99314.31
2022-11-06T08:16:22.580Z,99306.38
2022-11-06T08:18:50.347Z,99302.78
2022-11-06T08:21:19.173Z,99306.31
2022-11-06T08:23:47.000Z,99299.59
2022-11-06T08:26:14.886Z,99301.56
2022-11-06T08:28:42.817Z,99301.03
2022-11-06T08:31:12.191Z,99298.53
2022-11-06T08:33:40.394Z,99300.47
2022-11-06T08:36:10.180Z,99299.94
2022-11-06T08:38:37.998Z,99293.84
2022-11-06T08:41:06.758Z,99295.59
2022-11-06T08:43:34.782Z,99292.06
2022-11-06T08:46:03.385Z,99283.09
2022-11-06T08:48:35.305Z,99277.59
2022-11-06T08:51:04.873Z,99265.25
2022-11-06T08:53:32.758Z,99274.03
2022-11-06T08:56:00.710Z,99268.22
2022-11-06T08:58:28.566Z,99264.16
2022-11-06T09:00:56.527Z,99258.00
2022-11-06T09:03:24.324Z,99257.94
2022-11-06T09:05:53.532Z,99254.25
2022-11-06T09:08:21.417Z,99253.38
2022-11-06T09:10:50.438Z,99250.59
2022-11-06T09:13:20.011Z,99249.44
2022-11-06T09:15:47.791Z,99259.25
2022-11-06T09:18:15.581Z,99251.97
2022-11-06T09:20:43.401Z,99238.13
2022-11-06T09:23:13.133Z,99238.56
2022-11-06T09:25:41.123Z,99236.69
2022-11-06T09:28:08.857Z,99225.09
2022-11-06T09:30:36.884Z,99234.13
2022-11-06T09:33:09.175Z,99235.28
2022-11-06T09:35:40.147Z,99245.28
2022-11-06T09:38:10.903Z,99228.78
2022-11-06T09:40:44.968Z,99239.13
2022-11-06T09:43:43.216Z,99236.38
2022-11-06T09:46:20.096Z,99233.53
2022-11-06T09:48:53.368Z,99230.63
2022-11-06T09:51:30.251Z,99231.44
2022-11-06T09:54:04.892Z,99230.88
2022-11-06T09:56:37.912Z,99233.72
2022-11-06T09:59:10.178Z,99226.34
2022-11-06T10:01:44.352Z,99233.16
2022-11-06T10:04:25.218Z,99238.94
2022-11-06T10:06:54.394Z,99234.53
2022-11-06T10:09:22.249Z,99239.25
2022-11-06T10:12:08.924Z,99234.59
2022-11-06T10:14:53.242Z,99234.09
2022-11-06T10:17:34.742Z,99231.16
2022-11-06T10:20:13.653Z,99228.75
2022-11-06T10:22:43.266Z,99244.53
2022-11-06T10:25:20.834Z,99236.81
2022-11-06T10:28:01.946Z,99224.22
2022-11-06T10:30:38.784Z,99209.28
2022-11-06T10:33:19.919Z,99200.63
2022-11-06T10:35:55.603Z,99202.53
2022-11-06T10:38:27.190Z,99205.19
2022-11-06T10:40:56.632Z,99198.00
2022-11-06T10:43:33.149Z,99197.75
2022-11-06T10:46:10.675Z,99198.09
2022-11-06T10:48:41.912Z,99187.25
2022-11-06T10:51:28.387Z,99191.53
2022-11-06T10:54:06.918Z,99184.97
2022-11-06T10:56:55.497Z,99183.75
2022-11-06T10:59:25.913Z,99186.34
2022-11-06T11:01:54.083Z,99172.19
2022-11-06T11:04:21.960Z,99164.25
2022-11-06T11:06:49.786Z,99156.09
2022-11-06T11:09:38.622Z,99164.69
2022-11-06T11:12:06.660Z,99153.72
2022-11-06T11:14:35.913Z,99139.31
2022-11-06T11:17:09.189Z,99141.78
2022-11-06T11:19:38.725Z,99136.06
2022-11-06T11:22:18.681Z,99126.09
2022-11-06T11:25:01.108Z,99120.78
2022-11-06T11:27:29.848Z,99104.16
2022-11-06T11:29:59.361Z,99100.19
2022-11-06T11:32:30.357Z,99086.88
2022-11-06T11:34:59.198Z,99090.91
2022-11-06T11:37:29.989Z,99093.16
2022-11-06T11:40:22.405Z,99093.63
2022-11-06T11:42:50.579Z,99085.34
2022-11-06T11:45:21.790Z,99080.63
2022-11-06T11:47:51.606Z,99080.41
2022-11-06T11:50:29.708Z,99083.44
2022-11-06T11:53:05.607Z,99062.81
2022-11-06T11:55:41.495Z,99066.72
2022-11-06T11:58:21.488Z,99061.59
2022-11-06T12:00:54.416Z,99063.69
2022-11-06T12:03:23.957Z,99053.97
2022-11-06T12:05:53.501Z,99046.97
2022-11-06T12:08:26.284Z,99041.38
2022-11-06T12:10:54.271Z,99048.41
2022-11-06T12:13:23.320Z,99058.00
2022-11-06T12:15:57.297Z,99050.31
2022-11-06T12:18:29.684Z,99042.03
2022-11-06T12:21:00.931Z,99038.28
2022-11-06T12:23:35.701Z,99048.19
2022-11-06T12:26:10.528Z,99043.84
2022-11-06T12:28:42.920Z,99045.81
2022-11-06T12:31:18.699Z,99042.91
2022-11-06T12:34:06.804Z,99035.03
2022-11-06T12:36:42.434Z,99030.69
2022-11-06T12:39:15.098Z,99014.34
2022-11-06T12:41:46.866Z,99004.78
2022-11-06T12:44:17.281Z,98992.66
2022-11-06T12:46:49.283Z,98991.59
2022-11-06T12:50:02.189Z,98980.72
2022-11-06T12:52:43.666Z,98970.75
2022-11-06T12:55:20.150Z,98987.69
2022-11-06T12:58:03.908Z,98979.09
2022-11-06T13:00:37.486Z,98976.41
2022-11-06T13:03:24.647Z,98973.84
2022-11-06T13:06:00.624Z,98971.78
2022-11-06T13:08:37.797Z,98953.84
2022-11-06T13:11:18.723Z,98959.03
2022-11-06T13:14:03.158Z,98948.47
2022-11-06T13:16:39.780Z,98927.28
2022-11-06T13:19:15.476Z,98926.16
2022-11-06T13:22:07.953Z,98923.09
2022-11-06T13:24:41.395Z,98902.88
2022-11-06T13:27:17.644Z,98904.22
2022-11-06T13:29:46.632Z,98909.94
2022-11-06T13:32:18.181Z,98911.41
2022-11-06T13:34:50.581Z,98918.47
2022-11-06T13:37:21.758Z,98920.38
2022-11-06T13:39:54.858Z,98925.28
2022-11-06T13:42:28.369Z,98913.69
2022-11-06T13:44:57.456Z,98900.25
2022-11-06T13:47:32.094Z,98909.25
2022-11-06T13:50:09.383Z,98916.13
2022-11-06T13:52:46.768Z,98898.44
2022-11-06T13:55:25.295Z,98892.66
2022-11-06T13:58:22.108Z,98889.63
2022-11-06T14:01:04.166Z,98864.00
2022-11-06T14:03:51.215Z,98858.19
2022-11-06T14:06:22.854Z,98861.84
2022-11-06T14:08:53.611Z,98865.84
2022-11-06T14:11:26.833Z,98861.00
2022-11-06T14:14:01.104Z,98879.09
2022-11-06T14:16:31.895Z,98869.31
2022-11-06T14:19:03.842Z,98879.72
2022-11-06T14:21:47.158Z,98874.06
2022-11-06T14:24:40.194Z,98873.22
2022-11-06T14:27:13.035Z,98876.47
2022-11-06T14:30:00.502Z,98866.94
2022-11-06T14:32:43.575Z,98858.09
2022-11-06T14:35:51.191Z,98863.66
2022-11-06T14:38:37.876Z,98849.66
2022-11-06T14:41:51.116Z,98845.03
2022-11-06T14:44:39.440Z,98857.19
2022-11-06T14:47:10.342Z,98857.19
2022-11-06T14:49:43.793Z,98852.44
2022-11-06T14:52:14.823Z,98861.56
2022-11-06T14:54:53.665Z,98859.44
2022-11-06T14:57:46.320Z,98869.13
2022-11-06T15:00:34.251Z,98884.59
2022-11-06T15:03:04.566Z,98892.16
2022-11-06T15:05:41.861Z,98882.16
2022-11-06T15:08:10.508Z,98884.50
2022-11-06T15:10:53.846Z,98870.97
2022-11-06T15:13:27.759Z,98869.41
2022-11-06T15:15:59.418Z,98856.47
2022-11-06T15:18:28.076Z,98863.72
2022-11-06T15:20:58.196Z,98868.19
2022-11-06T15:23:30.060Z,98859.84
2022-11-06T15:26:09.625Z,98855.66
2022-11-06T15:28:45.453Z,98864.19
2022-11-06T15:31:16.861Z,98871.66
2022-11-06T15:34:00.994Z,98865.72
2022-11-06T15:36:33.480Z,98851.94
2022-11-06T15:39:02.138Z,98854.13
2022-11-06T15:41:31.349Z,98845.91
2022-11-06T15:43:59.859Z,98845.94
2022-11-06T15:46:29.398Z,98856.50
2022-11-06T15:49:17.223Z,98852.41
2022-11-06T15:51:56.039Z,98851.88
2022-11-06T15:54:35.960Z,98854.91
2022-11-06T15:57:14.605Z,98862.91
2022-11-06T15:59:42.480Z,98859.13
2022-11-06T16:02:16.840Z,98852.72
2022-11-06T16:04:45.641Z,98859.41
2022-11-06T16:07:14.174Z,98851.88
2022-11-06T16:09:50.303Z,98843.16
2022-11-06T16:12:45.584Z,98836.13
2022-11-06T16:15:48.708Z,98841.09
2022-11-06T16:18:22.496Z,98839.22
2022-11-06T16:20:53.616Z,98831.34
2022-11-06T16:23:32.457Z,98829.06
2022-11-06T16:26:06.522Z,98831.88
2022-11-06T16:28:36.417Z,98844.81
2022-11-06T16:31:11.642Z,98832.88
2022-11-06T16:33:39.446Z,98847.16
2022-11-06T16:36:12.510Z,98842.97
2022-11-06T16:38:43.627Z,98847.91
2022-11-06T16:41:33.598Z,98840.72
2022-11-06T16:44:30.784Z,98841.53
2022-11-06T16:47:15.100Z,98836.22
2022-11-06T16:49:48.944Z,98832.78
2022-11-06T16:52:25.368Z,98826.88
2022-11-06T16:54:56.633Z,98819.41
2022-11-06T16:57:27.134Z,98829.38
2022-11-06T17:00:01.033Z,98802.31
2022-11-06T17:02:32.657Z,98828.59
2022-11-06T17:05:09.189Z,98819.00
2022-11-06T17:07:37.093Z,98819.19
2022-11-06T17:10:27.736Z,98817.91
2022-11-06T17:12:55.920Z,98811.56
2022-11-06T17:15:25.219Z,98824.63
2022-11-06T17:17:53.060Z,98818.63
2022-11-06T17:20:20.898Z,98828.19
2022-11-06T17:22:49.988Z,98828.59
2022-11-06T17:25:17.844Z,98830.66
2022-11-06T17:27:45.620Z,98837.44
2022-11-06T17:30:15.748Z,98827.50
2022-11-06T17:32:44.911Z,98822.22
2022-11-06T17:35:12.702Z,98810.63
2022-11-06T17:37:40.708Z,98817.13
2022-11-06T17:40:09.689Z,98810.91
2022-11-06T17:42:37.580Z,98804.66
2022-11-06T17:45:06.021Z,98810.28
2022-11-06T17:47:33.798Z,98815.50
2022-11-06T17:50:02.951Z,98810.75
2022-11-06T17:52:30.790Z,98802.34
2022-11-06T17:54:58.692Z,98806.25
2022-11-06T17:57:26.533Z,98792.28
2022-11-06T17:59:54.322Z,98797.00
2022-11-06T18:02:41.238Z,98805.81
2022-11-06T18:05:11.513Z,98790.72
2022-11-06T18:07:39.282Z,98787.88
2022-11-06T18:10:08.009Z,98792.16
2022-11-06T18:12:35.798Z,98803.03
2022-11-06T18:15:03.585Z,98802.53
2022-11-06T18:17:31.390Z,98775.09
2022-11-06T18:19:59.213Z,98772.72
2022-11-06T18:22:28.567Z,98763.16
2022-11-06T18:24:56.365Z,98767.03
2022-11-06T18:27:24.177Z,98777.31
2022-11-06T18:29:51.981Z,98777.31
2022-11-06T18:32:20.161Z,98783.53
2022-11-06T18:34:47.974Z,98797.53
2022-11-06T18:37:15.742Z,98795.84
2022-11-06T18:39:44.869Z,98798.50
2022-11-06T18:42:12.666Z,98789.88
2022-11-06T18:44:41.441Z,98791.03
2022-11-06T18:47:09.358Z,98786.94
2022-11-06T18:49:37.190Z,98776.25
2022-11-06T18:52:05.017Z,98779.34
2022-11-06T18:54:32.934Z,98782.53
2022-11-06T18:57:02.309Z,98784.22
2022-11-06T18:59:30.409Z,98782.38
2022-11-06T19:01:58.785Z,98785.22
2022-11-06T19:04:27.861Z,98781.66
2022-11-06T19:06:56.020Z,98779.81
2022-11-06T19:09:23.955Z,98782.97
2022-11-06T19:11:51.789Z,98774.63
2022-11-06T19:14:21.005Z,98785.22
2022-11-06T19:16:49.079Z,98793.97
2022-11-06T19:19:25.136Z,98780.56
2022-11-06T19:21:53.938Z,98786.94
2022-11-06T19:24:21.915Z,98803.47
2022-11-06T19:26:50.352Z,98788.41
2022-11-06T19:29:18.397Z,98766.13
2022-11-06T19:31:47.540Z,98778.19
2022-11-06T19:34:16.664Z,98780.13
2022-11-06T19:36:44.470Z,98780.81
2022-11-06T19:39:15.196Z,98775.34
2022-11-06T19:41:43.073Z,98780.81
2022-11-06T19:44:10.946Z,98775.34
2022-11-06T19:46:39.283Z,98782.84
2022-11-06T19:49:10.474Z,98773.63
2022-11-06T19:51:38.709Z,98784.44
2022-11-06T19:54:07.628Z,98782.22
2022-11-06T19:56:35.456Z,98792.00
2022-11-06T19:59:03.371Z,98797.38
2022-11-06T20:01:33.893Z,98786.84
2022-11-06T20:04:01.965Z,98804.25
2022-11-06T20:06:31.231Z,98790.66
2022-11-06T20:08:59.491Z,98787.63
2022-11-06T20:11:27.317Z,98788.66
2022-11-06T20:13:56.103Z,98784.88
2022-11-06T20:16:24.443Z,98791.88
2022-11-06T20:18:55.916Z,98800.38
2022-11-06T20:21:26.285Z,98798.75
2022-11-06T20:23:56.283Z,98819.31
2022-11-06T20:26:24.651Z,98821.75
2022-11-06T20:28:52.502Z,98827.34
2022-11-06T20:31:20.571Z,98829.78
2022-11-06T20:33:49.102Z,98829.41
2022-11-06T20:36:20.583Z,98832.34
2022-11-06T20:38:48.390Z,98832.34
2022-11-06T20:41:18.119Z,98835.44
2022-11-06T20:43:46.642Z,98833.34
2022-11-06T20:46:16.290Z,98812.09
2022-11-06T20:48:45.223Z,98819.16
2022-11-06T20:51:14.503Z,98825.53
2022-11-06T20:53:42.341Z,98827.22
2022-11-06T20:56:12.002Z,98825.31
2022-11-06T20:58:41.232Z,98824.56
2022-11-06T21:01:11.329Z,98833.91
2022-11-06T21:03:40.331Z,98823.56
2022-11-06T21:06:08.838Z,98838.78
2022-11-06T21:08:38.067Z,98830.00
2022-11-06T21:11:11.392Z,98831.06
2022-11-06T21:13:41.436Z,98837.88
2022-11-06T21:16:12.907Z,98833.84
2022-11-06T21:18:41.560Z,98835.56
2022-11-06T21:21:11.787Z,98838.25
2022-11-06T21:23:40.292Z,98841.09
2022-11-06T21:26:09.903Z,98843.44
2022-11-06T21:28:39.109Z,98836.56
2022-11-06T21:31:12.054Z,98836.31
2022-11-06T21:33:41.748Z,98846.13
2022-11-06T21:36:12.189Z,98845.03
2022-11-06T21:38:40.591Z,98855.63
2022-11-06T21:41:09.893Z,98855.44
2022-11-06T21:43:38.959Z,98847.50
2022-11-06T21:46:09.171Z,98847.09
2022-11-06T21:48:46.365Z,98856.22
2022-11-06T21:51:16.680Z,98853.06
2022-11-06T21:54:01.952Z,98865.84
2022-11-06T21:56:29.832Z,98862.13
2022-11-06T21:58:59.533Z,98860.56
2022-11-06T22:01:28.842Z,98860.94
2022-11-06T22:03:58.189Z,98857.47
2022-11-06T22:06:27.481Z,98858.78
2022-11-06T22:08:56.813Z,98869.13
2022-11-06T22:11:27.024Z,98871.34
2022-11-06T22:13:56.888Z,98877.09
2022-11-06T22:16:26.824Z,98876.44
2022-11-06T22:18:55.062Z,98880.06
2022-11-06T22:21:25.920Z,98878.84
2022-11-06T22:23:54.582Z,98881.59
2022-11-06T22:26:25.303Z,98882.25
2022-11-06T22:28:53.983Z,98885.34
2022-11-06T22:31:21.759Z,98882.16
2022-11-06T22:33:53.727Z,98874.69
2022-11-06T22:36:22.976Z,98881.53
2022-11-06T22:38:52.227Z,98878.19
2022-11-06T22:41:22.790Z,98879.84
2022-11-06T22:43:50.711Z,98890.53
2022-11-06T22:46:20.597Z,98894.19
2022-11-06T22:48:48.871Z,98892.03
2022-11-06T22:51:18.434Z,98897.84
2022-11-06T22:53:46.359Z,98906.03
2022-11-06T22:56:15.535Z,98898.41
2022-11-06T22:58:43.671Z,98906.75
2022-11-06T23:01:12.628Z,98899.38
2022-11-06T23:03:41.148Z,98901.78
2022-11-06T23:06:10.654Z,98896.22
2022-11-06T23:08:44.145Z,98892.88
2022-11-06T23:11:17.188Z,98903.91
2022-11-06T23:13:45.699Z,98905.84
2022-11-06T23:16:15.446Z,98904.88
2022-11-06T23:18:43.971Z,98904.69
2022-11-06T23:21:13.252Z,98900.84
2022-11-06T23:23:41.178Z,98901.97
2022-11-06T23:26:13.376Z,98906.97
2022-11-06T23:28:43.316Z,98903.38
2022-11-06T23:31:13.620Z,98915.59
2022-11-06T23:33:41.758Z,98927.50
2022-11-06T23:36:10.882Z,98929.25
2022-11-06T23:38:39.151Z,98936.66
2022-11-06T23:41:28.356Z,98933.91
2022-11-06T23:43:58.608Z,98938.75
2022-11-06T23:46:28.124Z,98934.59
2022-11-06T23:48:56.413Z,98933.81
2022-11-06T23:51:25.915Z,98941.50
2022-11-06T23:53:54.452Z,98934.84
2022-11-06T23:56:22.397Z,98938.63
2022-11-06T23:58:50.222Z,98945.78
